Archival Weather

Republic

Farmingdale, New York (KFRG)

Report from: Friday, February 23, 2024 2:35 PM EST
Current time: Monday, June 24, 2024 6:49 AM EDT

Current weather – Weather history – Daily summaries
Weather forecast

Temperature6.7°C (44.1°F)
Wind chill3.9°C (39.0°F)
Dew point3.9°C (39.0°F)
Winds 8 kts (4.1 m/s, 9.2 mph) North (10°)
Visibility10 mi. (16.1 km)
Clouds Scattered clouds 1,700 ft. (518 m)
Ceiling: Broken clouds 4,000 ft. (1,219 m)
Overcast 6,000 ft. (1,829 m)
Altimeter29.45 in.Hg (997 mB)
Relative humidity82 %
Density altitude-334 ft. (-102 m)
Remarks Special weather observation
Automated weather observing station without precipitation discriminator
Flight conditions Visual Meteorological Conditions
Raw dataSPUS70 KWBC 231942 SPECI KFRG 231935Z 01008KT 10SM SCT017 BKN040 OVC060 07/04 A2945 RMK AO1 T00670039
An error has occurred. This application may no longer respond until reloaded. Reload 🗙